^^
Datos históricos de la estación: Murcia-Puente Tocinos
Diario Informe para Julio 22, 2019 Unidades:  Métrico    Ingés   Ambas
Diario Semanal Mensual Anual
  Máxima: Mínima: Promedio:
Temperatura: 31.2 °C 21.8 °C 26 °C
Punto de rocio: 20.7 °C 14.9 °C 19.4 °C
Humedad: 90% 45.1% 69%
Velocidad viento: 17.2km/h 0km/h 5.6km/h
Racha viento: 27.8km/h - -
Viento- - SSO
Presión: 1014.0 hPa 1010.0 hPa -
Precipitación: 0.0 mm    
 
 
Tabla de datos para Julio 22, 2019
Hora Temperatura Punto de rocio Presión Viento Velocidad viento Racha viento Humedad Intensidad lluvia(por hora) Nubes
00:04 24.4 °C 19.8 °C 1011.6 hPa OSO 3.2 km/h 8 km/h 75.6% 0.0 mm
00:09 24.4 °C 19.7 °C 1011.6 hPa OSO 3 km/h 4.7 km/h 75% 0.0 mm
00:14 24.4 °C 19.7 °C 1011.6 hPa OSO 2.2 km/h 5.8 km/h 75% 0.0 mm
00:19 24.4 °C 19.7 °C 1011.6 hPa OSO 2.4 km/h 6.4 km/h 75% 0.0 mm
00:24 24.4 °C 19.7 °C 1011.4 hPa SE 2.9 km/h 7.4 km/h 75% 0.0 mm
00:29 24.4 °C 19.7 °C 1011.4 hPa SE 3.1 km/h 8 km/h 75% 0.0 mm
00:34 24.4 °C 19.7 °C 1011.4 hPa SE 3.9 km/h 6.4 km/h 75% 0.0 mm
00:39 24.4 °C 19.7 °C 1011.3 hPa SE 3.1 km/h 3.2 km/h 75% 0.0 mm
00:44 24.4 °C 19.7 °C 1011.3 hPa Calm   1.6 km/h 75% 0.0 mm
00:49 24.4 °C 19.8 °C 1011.3 hPa Calm     75.7% 0.0 mm
00:54 24.4 °C 19.9 °C 1011.2 hPa Calm     76% 0.0 mm
00:59 24.3 °C 19.8 °C 1011.2 hPa Calm   5.6 km/h 76.1% 0.0 mm
01:04 24.3 °C 20 °C 1011.2 hPa Calm   4.8 km/h 77% 0.0 mm
01:09 24.2 °C 19.9 °C 1011.2 hPa Calm     77% 0.0 mm
01:14 24.1 °C 19.8 °C 1011.2 hPa Calm     77% 0.0 mm
01:19 24.1 °C 19.9 °C 1011.2 hPa Calm     77.4% 0.0 mm
01:24 24.1 °C 19.9 °C 1011.1 hPa Calm     77.1% 0.0 mm
01:29 24.1 °C 20 °C 1011.1 hPa Calm     78% 0.0 mm
01:34 24 °C 20 °C 1011.1 hPa Calm     78% 0.0 mm
01:39 23.9 °C 20 °C 1010.9 hPa Calm   5.8 km/h 78.6% 0.0 mm
01:44 23.8 °C 20 °C 1010.9 hPa Calm   6.4 km/h 79.2% 0.0 mm
01:49 23.8 °C 20 °C 1010.9 hPa NNE 0.6 km/h 5.8 km/h 79.7% 0.0 mm
01:54 23.7 °C 20.1 °C 1010.8 hPa NNE 2.9 km/h 6.4 km/h 80% 0.0 mm
01:59 23.7 °C 20 °C 1010.8 hPa NNE 2.2 km/h 3.2 km/h 80% 0.0 mm
02:04 23.7 °C 20 °C 1010.8 hPa Calm     80% 0.0 mm
02:09 23.7 °C 20.1 °C 1010.8 hPa Calm     80.3% 0.0 mm
02:14 23.7 °C 20.1 °C 1010.8 hPa Calm   4.7 km/h 80% 0.0 mm
02:19 23.7 °C 20.1 °C 1011.0 hPa ESE 0.5 km/h 7.4 km/h 80% 0.0 mm
02:24 23.7 °C 20 °C 1011.0 hPa SE 2.2 km/h 8.4 km/h 79.8% 0.0 mm
02:29 23.7 °C 20.1 °C 1011.0 hPa SE 2.7 km/h 8.4 km/h 80% 0.0 mm
02:34 23.7 °C 20 °C 1011.1 hPa SE 4.7 km/h 8.4 km/h 80% 0.0 mm
02:39 23.6 °C 19.9 °C 1011.1 hPa ESE 4.7 km/h 8 km/h 80% 0.0 mm
02:44 23.6 °C 19.9 °C 1011.1 hPa ESE 5 km/h 8 km/h 80% 0.0 mm
02:49 23.5 °C 19.8 °C 1011.1 hPa ESE 4.9 km/h 8 km/h 80% 0.0 mm
02:54 23.4 °C 19.9 °C 1011.1 hPa ESE 4.7 km/h 8 km/h 80.9% 0.0 mm
02:59 23.4 °C 19.9 °C 1011.1 hPa ESE 4.2 km/h 8 km/h 81% 0.0 mm
03:04 23.3 °C 19.9 °C 1011.1 hPa ESE 2.9 km/h 1.6 km/h 81% 0.0 mm
03:09 23.3 °C 19.8 °C 1010.9 hPa ESE 2.7 km/h   81% 0.0 mm
03:14 23.3 °C 20 °C 1010.9 hPa Calm     81.5% 0.0 mm
03:19 23.4 °C 20.2 °C 1011.1 hPa Calm   5.8 km/h 82% 0.0 mm
03:24 23.4 °C 20.2 °C 1011.1 hPa Calm   6.4 km/h 82% 0.0 mm
03:29 23.5 °C 20.2 °C 1011.1 hPa Sur 0.6 km/h 5.6 km/h 82% 0.0 mm
03:34 23.5 °C 20.2 °C 1011.1 hPa SSE 2.9 km/h 5.8 km/h 82% 0.0 mm
03:39 23.5 °C 20.2 °C 1011.1 hPa SSE 2.9 km/h 6.4 km/h 82% 0.0 mm
03:44 23.4 °C 20.3 °C 1011.1 hPa SE 2.9 km/h 5.8 km/h 82.4% 0.0 mm
03:49 23.4 °C 20.3 °C 1011.1 hPa ESE 3.1 km/h 7.6 km/h 83% 0.0 mm
03:54 23.3 °C 20.2 °C 1010.8 hPa ESE 3.9 km/h 8 km/h 83% 0.0 mm
03:59 23.2 °C 20.2 °C 1010.8 hPa Este 3.6 km/h 8 km/h 83% 0.0 mm
04:04 23.2 °C 20.2 °C 1010.8 hPa NE 2.9 km/h 5.8 km/h 83% 0.0 mm
04:09 23.2 °C 20.2 °C 1010.3 hPa North 2.8 km/h 6.4 km/h 83.1% 0.0 mm
04:14 23.1 °C 20.2 °C 1010.3 hPa ONO 2.2 km/h 8 km/h 84% 0.0 mm
04:19 23.1 °C 20.2 °C 1010.3 hPa ONO 2.2 km/h 8 km/h 84% 0.0 mm
04:24 23.1 °C 20.4 °C 1010.3 hPa ONO 2.2 km/h   84.8% 0.0 mm
04:29 23.1 °C 20.5 °C 1010.3 hPa ONO 1.8 km/h 3.7 km/h 85.3% 0.0 mm
04:34 23.1 °C 20.6 °C 1010.5 hPa Calm   5.8 km/h 86% 0.0 mm
04:39 23.1 °C 20.6 °C 1010.5 hPa Calm   6.4 km/h 86% 0.0 mm
04:44 23 °C 20.5 °C 1010.5 hPa Calm     86% 0.0 mm
04:49 22.9 °C 20.4 °C 1010.5 hPa Calm   3.7 km/h 86% 0.0 mm
04:54 22.9 °C 20.4 °C 1010.4 hPa Calm   3.2 km/h 86% 0.0 mm
04:59 22.9 °C 20.5 °C 1010.4 hPa Calm   4.7 km/h 86.7% 0.0 mm
05:04 22.8 °C 20.5 °C 1010.4 hPa Calm   4.8 km/h 87% 0.0 mm
05:09 22.8 °C 20.5 °C 1010.2 hPa Calm   5 km/h 87% 0.0 mm
05:14 22.8 °C 20.4 °C 1010.2 hPa Calm   6.4 km/h 86.4% 0.0 mm
05:19 22.7 °C 20.2 °C 1010.2 hPa NNE 0.4 km/h 6.4 km/h 86% 0.0 mm
05:24 22.6 °C 20.1 °C 1010.0 hPa NE 2.2 km/h 7.4 km/h 86% 0.0 mm
05:29 22.6 °C 20.2 °C 1010.0 hPa SE 2.5 km/h 9.3 km/h 86.7% 0.0 mm
05:34 22.4 °C 20 °C 1010.3 hPa SE 3.9 km/h 9.7 km/h 86.3% 0.0 mm
05:39 22.3 °C 20.1 °C 1010.3 hPa SE 3.9 km/h 8 km/h 87% 0.0 mm
05:44 22.3 °C 20.1 °C 1010.3 hPa SE 3.9 km/h 8 km/h 87% 0.0 mm
05:49 22.3 °C 20.1 °C 1010.4 hPa SE 3 km/h 3.2 km/h 87.4% 0.0 mm
05:54 22.3 °C 20.2 °C 1010.4 hPa Calm     88% 0.0 mm
05:59 22.3 °C 20.2 °C 1010.4 hPa Calm   5.8 km/h 88% 0.0 mm
06:04 22.3 °C 20.3 °C 1010.6 hPa Calm   6.4 km/h 88% 0.0 mm
06:09 22.4 °C 20.3 °C 1010.6 hPa SO 0.6 km/h 7.4 km/h 88% 0.0 mm
06:14 22.4 °C 20.3 °C 1010.6 hPa OSO 3.2 km/h 8 km/h 88% 0.0 mm
06:19 22.4 °C 20.5 °C 1010.8 hPa SSO 3.2 km/h 6.4 km/h 88.7% 0.0 mm
06:24 22.5 °C 20.6 °C 1010.8 hPa SSE 3.2 km/h 8.4 km/h 88.9% 0.0 mm
06:29 22.6 °C 20.5 °C 1010.8 hPa SE 3.6 km/h 8 km/h 88% 0.0 mm
06:34 22.4 °C 20.4 °C 1010.8 hPa SE 5 km/h 9.5 km/h 88% 0.0 mm
06:39 22.4 °C 20.3 °C 1010.7 hPa SSE 4.9 km/h 9.7 km/h 88% 0.0 mm
06:44 22.3 °C 20.2 °C 1010.7 hPa Sur 4.7 km/h 8 km/h 88% 0.0 mm
06:49 22.3 °C 20.4 °C 1011.1 hPa SO 4.5 km/h 8 km/h 88.9% 0.0 mm
06:54 22.2 °C 20.3 °C 1011.1 hPa OSO 3.9 km/h 8 km/h 89% 0.0 mm
06:59 22.2 °C 20.3 °C 1011.1 hPa OSO 3.5 km/h 4.8 km/h 89% 0.0 mm
07:04 22.2 °C 20.3 °C 1011.1 hPa Oeste 2.2 km/h 4.7 km/h 89% 0.0 mm
07:09 22.3 °C 20.3 °C 1010.9 hPa Oeste 2.2 km/h 5 km/h 89% 0.0 mm
07:14 22.3 °C 20.4 °C 1010.9 hPa Oeste 2.2 km/h 5.8 km/h 89% 0.0 mm
07:19 22.3 °C 20.4 °C 1010.9 hPa OSO 2.4 km/h 7.4 km/h 89% 0.0 mm
07:24 22.3 °C 20.4 °C 1010.8 hPa Oeste 3.2 km/h 8 km/h 89% 0.0 mm
07:29 22.3 °C 20.4 °C 1010.8 hPa OSO 3.2 km/h 8 km/h 89% 0.0 mm
07:34 22.2 °C 20.3 °C 1010.9 hPa Oeste 3.2 km/h 8 km/h 89% 0.0 mm
07:39 22.2 °C 20.3 °C 1010.9 hPa Oeste 3.2 km/h 8 km/h 89% 0.0 mm
07:44 22.2 °C 20.4 °C 1010.9 hPa Oeste 2.9 km/h 5.8 km/h 89.6% 0.0 mm
07:49 22.1 °C 20.4 °C 1011.0 hPa SO 3 km/h 7.4 km/h 90% 0.0 mm
07:54 22.1 °C 20.4 °C 1011.0 hPa SSO 3.2 km/h 8 km/h 90% 0.0 mm
07:59 22.1 °C 20.4 °C 1011.0 hPa SSE 3.4 km/h 6.9 km/h 90% 0.0 mm
08:04 22.1 °C 20.3 °C 1011.0 hPa SSE 3.9 km/h 9.3 km/h 89.3% 0.0 mm
08:09 22 °C 20.1 °C 1011.0 hPa Sur 4 km/h 9.7 km/h 89% 0.0 mm
08:14 21.9 °C 20.1 °C 1011.0 hPa Sur 4.7 km/h 7.6 km/h 89.3% 0.0 mm
08:19 21.9 °C 20.2 °C 1011.2 hPa SSE 4.9 km/h 11.1 km/h 90% 0.0 mm
08:24 21.8 °C 20.1 °C 1011.2 hPa Sur 5.8 km/h 11.3 km/h 90% 0.0 mm
08:29 21.8 °C 20.1 °C 1011.2 hPa Sur 6.1 km/h 11.9 km/h 90% 0.0 mm
08:34 21.8 °C 20.1 °C 1011.3 hPa Sur 7.6 km/h 11.9 km/h 90% 0.0 mm
08:39 21.8 °C 20.1 °C 1011.3 hPa SSO 7.3 km/h 11.3 km/h 90% 0.0 mm
08:44 21.9 °C 20.2 °C 1011.3 hPa SSO 6.5 km/h 10 km/h 90% 0.0 mm
08:49 21.9 °C 20.2 °C 1011.4 hPa SSO 6.5 km/h 13 km/h 90% 0.0 mm
08:54 22.1 °C 20.3 °C 1011.4 hPa SSO 6.9 km/h 12.9 km/h 89.7% 0.0 mm
08:59 22.2 °C 20.3 °C 1011.4 hPa SO 6.7 km/h 9.7 km/h 89% 0.0 mm
09:04 22.3 °C 20.4 °C 1011.5 hPa SO 5.8 km/h 9.3 km/h 89% 0.0 mm
09:09 22.3 °C 20.3 °C 1011.5 hPa SO 5.6 km/h 9.7 km/h 88.2% 0.0 mm
09:14 22.5 °C 20.4 °C 1011.5 hPa SO 4.7 km/h 9.7 km/h 88% 0.0 mm
09:19 22.6 °C 20.4 °C 1011.6 hPa SO 4.7 km/h 8 km/h 87.4% 0.0 mm
09:24 22.7 °C 20.4 °C 1011.6 hPa SSO 4.7 km/h 10 km/h 86.9% 0.0 mm
09:29 22.7 °C 20.3 °C 1011.6 hPa SSO 5 km/h 10 km/h 86% 0.0 mm
09:34 22.8 °C 20.3 °C 1011.6 hPa SSO 6.4 km/h 9.7 km/h 86% 0.0 mm
09:39 22.9 °C 20.4 °C 1011.6 hPa SSO 6.5 km/h 11.1 km/h 85.9% 0.0 mm
09:44 22.9 °C 20.2 °C 1011.6 hPa SSO 6.5 km/h 11.3 km/h 85.1% 0.0 mm
09:49 23 °C 20.4 °C 1011.7 hPa SO 6.5 km/h 11.3 km/h 85% 0.0 mm
09:54 23.1 °C 20.4 °C 1011.7 hPa SO 6.5 km/h 11.3 km/h 84.5% 0.0 mm
09:59 23.2 °C 20.4 °C 1011.7 hPa SO 6.5 km/h 11.3 km/h 84% 0.0 mm
10:04 23.4 °C 20.5 °C 1011.8 hPa SSO 6.5 km/h 12.2 km/h 83.8% 0.0 mm
10:09 23.6 °C 20.6 °C 1011.8 hPa SO 6.5 km/h 13 km/h 83% 0.0 mm
10:14 23.7 °C 20.6 °C 1011.8 hPa OSO 6.9 km/h 13 km/h 82.7% 0.0 mm
10:19 23.8 °C 20.6 °C 1011.9 hPa OSO 7.1 km/h 13 km/h 82.3% 0.0 mm
10:24 23.9 °C 20.6 °C 1011.9 hPa SO 7.6 km/h 13 km/h 82% 0.0 mm
10:29 24 °C 20.7 °C 1011.9 hPa SO 7.4 km/h 12.9 km/h 81.6% 0.0 mm
10:34 24.2 °C 20.6 °C 1011.9 hPa SO 6.9 km/h 13.7 km/h 80.4% 0.0 mm
10:39 24.4 °C 20.7 °C 1011.9 hPa SSO 7 km/h 14.5 km/h 80% 0.0 mm
10:44 24.6 °C 20.6 °C 1011.9 hPa OSO 7.6 km/h 12.9 km/h 78.7% 0.0 mm
10:49 24.7 °C 20.5 °C 1012.0 hPa OSO 7.6 km/h 14.8 km/h 77.7% 0.0 mm
10:54 24.8 °C 20.6 °C 1012.0 hPa SSO 7.6 km/h 14.5 km/h 77.4% 0.0 mm
10:59 24.8 °C 20.6 °C 1012.0 hPa SO 7.6 km/h 13 km/h 77.2% 0.0 mm
11:04 25 °C 20.6 °C 1012.0 hPa OSO 7.6 km/h 12.9 km/h 76.2% 0.0 mm
11:09 25.2 °C 20.6 °C 1012.0 hPa SSO 7.5 km/h 11.9 km/h 75.9% 0.0 mm
11:14 25.3 °C 20.7 °C 1012.0 hPa SO 6.9 km/h 13 km/h 75.5% 0.0 mm
11:19 25.5 °C 20.5 °C 1012.0 hPa SSO 6.8 km/h 12.9 km/h 74% 0.0 mm
11:24 25.7 °C 20.5 °C 1011.9 hPa SO 6.5 km/h 13 km/h 72.6% 0.0 mm
11:29 25.8 °C 20.1 °C 1011.9 hPa OSO 6.7 km/h 16.7 km/h 70.7% 0.0 mm
11:34 26 °C 19.6 °C 1011.9 hPa OSO 7.6 km/h 17.2 km/h 67.9% 0.0 mm
11:39 26.2 °C 19.4 °C 1011.8 hPa OSO 7.8 km/h 17.7 km/h 66.3% 0.0 mm
11:44 26.3 °C 19.3 °C 1011.8 hPa OSO 8.7 km/h 13 km/h 65.5% 0.0 mm
11:49 26.6 °C 19.3 °C 1011.8 hPa ONO 8.4 km/h 13 km/h 64.3% 0.0 mm
11:54 26.8 °C 19.2 °C 1011.8 hPa Oeste 6.9 km/h 20.4 km/h 63.4% 0.0 mm
11:59 27 °C 19.3 °C 1011.8 hPa Oeste 7.3 km/h 20.9 km/h 62.8% 0.0 mm
12:04 27.2 °C 19.2 °C 1011.8 hPa Oeste 8.4 km/h 19.3 km/h 61.7% 0.0 mm
12:09 27.2 °C 19.1 °C 1011.7 hPa ONO 8 km/h 15.6 km/h 61.2% 0.0 mm
12:14 27.3 °C 18.9 °C 1011.7 hPa Oeste 6.5 km/h 19 km/h 60% 0.0 mm
12:19 27.5 °C 18.8 °C 1011.7 hPa OSO 7.1 km/h 19.3 km/h 59.1% 0.0 mm
12:24 27.6 °C 18.8 °C 1011.6 hPa OSO 9.5 km/h 20.4 km/h 58.9% 0.0 mm
12:29 27.7 °C 18.7 °C 1011.6 hPa Oeste 9.3 km/h 20.9 km/h 58.1% 0.0 mm
12:34 27.8 °C 18.4 °C 1011.6 hPa ONO 8.4 km/h 22.5 km/h 56.8% 0.0 mm
12:39 27.8 °C 18.2 °C 1011.5 hPa NNO 8.6 km/h 22.5 km/h 56% 0.0 mm
12:44 28.1 °C 18.2 °C 1011.5 hPa NE 9.5 km/h 14.8 km/h 55.1% 0.0 mm
12:49 28.3 °C 17.9 °C 1011.5 hPa Oeste 8.6 km/h 14.5 km/h 53.6% 0.0 mm
12:54 28.4 °C 17.7 °C 1011.5 hPa NO 5 km/h 16.7 km/h 52.2% 0.0 mm
12:59 28.4 °C 17.7 °C 1011.5 hPa NNE 5.9 km/h 16.7 km/h 52.3% 0.0 mm
13:04 28.6 °C 17.5 °C 1011.5 hPa NO 8.7 km/h 12.9 km/h 51.2% 0.0 mm
13:09 28.7 °C 17.4 °C 1011.3 hPa NNO 8 km/h 11.3 km/h 50.6% 0.0 mm
13:14 28.8 °C 17.5 °C 1011.3 hPa Oeste 5 km/h 17.2 km/h 50.6% 0.0 mm
13:19 28.7 °C 17.3 °C 1011.3 hPa ONO 5.7 km/h 17.7 km/h 50.1% 0.0 mm
13:24 28.7 °C 17.2 °C 1011.2 hPa OSO 8.7 km/h 16.1 km/h 50.1% 0.0 mm
13:29 28.8 °C 17.3 °C 1011.2 hPa OSO 8.2 km/h 11.3 km/h 50% 0.0 mm
13:34 28.9 °C 17.3 °C 1011.2 hPa Oeste 5.8 km/h 18 km/h 49.4% 0.0 mm
13:39 29.1 °C 17.4 °C 1011.2 hPa NO 6.1 km/h 19.3 km/h 49.5% 0.0 mm
13:44 29.2 °C 17.4 °C 1011.2 hPa OSO 7.6 km/h 14.5 km/h 49.1% 0.0 mm
13:49 29.3 °C 17.5 °C 1011.2 hPa SO 7.2 km/h 12.9 km/h 49% 0.0 mm
13:54 29.4 °C 17.3 °C 1011.0 hPa SSO 5.8 km/h 11.9 km/h 48.2% 0.0 mm
13:59 29.5 °C 17.4 °C 1011.0 hPa OSO 5.6 km/h 11.9 km/h 48.2% 0.0 mm
14:04 29.6 °C 17.4 °C 1011.0 hPa ONO 5 km/h 13 km/h 48% 0.0 mm
14:09 29.5 °C 17.4 °C 1010.9 hPa NNO 5.5 km/h 15.6 km/h 48.2% 0.0 mm
14:14 29.4 °C 17.4 °C 1010.9 hPa NNO 7.6 km/h 16.1 km/h 48.4% 0.0 mm
14:19 29.4 °C 17.3 °C 1010.9 hPa ENE 7.4 km/h 12.9 km/h 48.3% 0.0 mm
14:24 29.6 °C 17.6 °C 1010.8 hPa NE 6.9 km/h 11.3 km/h 48.6% 0.0 mm
14:29 29.7 °C 17.8 °C 1010.8 hPa NE 6.6 km/h 11.9 km/h 48.7% 0.0 mm
14:34 29.9 °C 17.6 °C 1010.8 hPa NNO 5 km/h 11.3 km/h 47.5% 0.0 mm
14:39 30.1 °C 17.6 °C 1010.5 hPa NE 5.1 km/h 10 km/h 47.2% 0.0 mm
14:44 30.1 °C 17.6 °C 1010.5 hPa NNE 5.8 km/h 9.7 km/h 47.1% 0.0 mm
14:49 30.3 °C 17.7 °C 1010.5 hPa NO 5.4 km/h 10.3 km/h 46.9% 0.0 mm
14:54 30.4 °C 17.6 °C 1010.5 hPa Sur 3.9 km/h 11.3 km/h 46.3% 0.0 mm
14:59 30.7 °C 17.7 °C 1010.5 hPa NO 4.1 km/h 11.3 km/h 46% 0.0 mm
15:04 30.8 °C 17.5 °C 1010.5 hPa SO 4.7 km/h 17.2 km/h 45.1% 0.0 mm
15:09 30.6 °C 17.6 °C 1010.3 hPa Oeste 5.2 km/h 17.7 km/h 45.9% 0.0 mm
15:14 30.4 °C 17.8 °C 1010.3 hPa Oeste 7.6 km/h 11.3 km/h 46.8% 0.0 mm
15:19 30.6 °C 17.9 °C 1010.3 hPa SO 7.2 km/h 13 km/h 46.8% 0.0 mm
15:24 30.6 °C 17.8 °C 1010.2 hPa Oeste 5.8 km/h 12.9 km/h 46.3% 0.0 mm
15:29 30.7 °C 18 °C 1010.2 hPa North 5.6 km/h 13 km/h 46.9% 0.0 mm
15:34 30.8 °C 17.8 °C 1010.2 hPa SSO 4.7 km/h 13 km/h 46.1% 0.0 mm
15:39 30.6 °C 17.8 °C 1010.2 hPa SSE 5.2 km/h 12.9 km/h 46.3% 0.0 mm
15:44 30.6 °C 17.8 °C 1010.2 hPa SSE 7.6 km/h 11.3 km/h 46.3% 0.0 mm
15:49 30.6 °C 17.8 °C 1010.3 hPa SE 7.4 km/h 11.9 km/h 46.6% 0.0 mm
15:54 30.7 °C 17.7 °C 1010.3 hPa Sur 6.9 km/h 11.3 km/h 46.1% 0.0 mm
15:59 30.8 °C 17.9 °C 1010.3 hPa SE 6.7 km/h 13 km/h 46.3% 0.0 mm
16:04 30.7 °C 18 °C 1010.3 hPa SE 5.8 km/h 12.9 km/h 46.7% 0.0 mm
16:09 30.7 °C 18.1 °C 1010.2 hPa SE 5.6 km/h 11.3 km/h 47% 0.0 mm
16:14 30.8 °C 18.2 °C 1010.2 hPa ENE 5 km/h 8 km/h 47% 0.0 mm
16:19 31 °C 18.4 °C 1010.2 hPa Este 4.6 km/h 8 km/h 47% 0.0 mm
16:24 31.2 °C 18.5 °C 1010.0 hPa Este 3.2 km/h 11.9 km/h 46.9% 0.0 mm
16:29 31.2 °C 18.9 °C 1010.0 hPa NE 3.6 km/h 13 km/h 47.9% 0.0 mm
16:34 31.1 °C 20.1 °C 1010.0 hPa ESE 5 km/h 20.1 km/h 52.3% 0.0 mm
16:39 30.6 °C 20.5 °C 1010.0 hPa ESE 6.1 km/h 27.8 km/h 54.6% 0.0 mm
16:44 30 °C 20.2 °C 1010.0 hPa ESE 11.1 km/h 27.8 km/h 55.8% 0.0 mm
16:49 29.8 °C 20.2 °C 1010.0 hPa ESE 12.3 km/h 27.4 km/h 56.5% 0.0 mm
16:54 29.8 °C 20.3 °C 1010.0 hPa ESE 17.2 km/h 25.9 km/h 56.8% 0.0 mm
16:59 29.9 °C 20.2 °C 1010.0 hPa ESE 16.8 km/h 25.7 km/h 56.2% 0.0 mm
17:04 29.8 °C 20.1 °C 1010.0 hPa SE 15.6 km/h 27.8 km/h 56% 0.0 mm
17:09 29.7 °C 20.1 °C 1010.0 hPa SE 15.8 km/h 27.4 km/h 56.1% 0.0 mm
17:14 29.7 °C 20 °C 1010.0 hPa ESE 16.4 km/h 25.7 km/h 56% 0.0 mm
17:19 29.7 °C 20 °C 1010.2 hPa SE 15.9 km/h 24.1 km/h 56.1% 0.0 mm
17:24 29.7 °C 20 °C 1010.2 hPa SE 14 km/h 22.5 km/h 56% 0.0 mm
17:29 29.7 °C 20 °C 1010.2 hPa SE 14 km/h 22.5 km/h 56% 0.0 mm
17:34 29.7 °C 20 °C 1010.2 hPa SE 14 km/h 22.5 km/h 55.9% 0.0 mm
17:39 29.8 °C 19.9 °C 1010.1 hPa SE 13.6 km/h 20.9 km/h 55.4% 0.0 mm
17:44 29.8 °C 19.8 °C 1010.1 hPa SE 11.9 km/h 22.2 km/h 54.9% 0.0 mm
17:49 29.8 °C 19.9 °C 1010.2 hPa SE 12.2 km/h 22.5 km/h 55.5% 0.0 mm
17:54 29.8 °C 19.9 °C 1010.2 hPa SE 13.7 km/h 20.9 km/h 55.5% 0.0 mm
17:59 29.9 °C 19.9 °C 1010.2 hPa SE 13.2 km/h 20.9 km/h 55% 0.0 mm
18:04 29.9 °C 19.9 °C 1010.2 hPa SE 11.9 km/h 20.9 km/h 55% 0.0 mm
18:09 29.8 °C 19.8 °C 1010.2 hPa SE 12.1 km/h 22.2 km/h 55% 0.0 mm
18:14 29.8 °C 19.8 °C 1010.2 hPa SE 13 km/h 22.5 km/h 55% 0.0 mm
18:19 29.7 °C 19.7 °C 1010.2 hPa SE 13 km/h 22.5 km/h 55% 0.0 mm
18:24 29.7 °C 19.7 °C 1010.1 hPa SE 13 km/h 22.2 km/h 55.1% 0.0 mm
18:29 29.7 °C 19.8 °C 1010.1 hPa SE 12.5 km/h 22.5 km/h 55.5% 0.0 mm
18:34 29.7 °C 19.6 °C 1010.3 hPa SE 10.3 km/h 18.5 km/h 55% 0.0 mm
18:39 29.6 °C 19.8 °C 1010.3 hPa SE 10.5 km/h 19.3 km/h 56% 0.0 mm
18:44 29.4 °C 19.8 °C 1010.3 hPa SE 11.1 km/h 17.7 km/h 56.1% 0.0 mm
18:49 29.3 °C 19.8 °C 1010.5 hPa ESE 10.6 km/h 14.8 km/h 56.7% 0.0 mm
18:54 29.3 °C 19.8 °C 1010.5 hPa SE 8.7 km/h 17.2 km/h 56.8% 0.0 mm
18:59 29.1 °C 19.5 °C 1010.5 hPa SE 8.9 km/h 17.7 km/h 56.2% 0.0 mm
19:04 28.9 °C 19.4 °C 1010.5 hPa SE 9.5 km/h 16.1 km/h 56.8% 0.0 mm
19:09 28.9 °C 19.4 °C 1010.4 hPa SE 9.3 km/h 15.6 km/h 56.6% 0.0 mm
19:14 28.8 °C 19.3 °C 1010.4 hPa SE 8.4 km/h 19 km/h 56.3% 0.0 mm
19:19 28.7 °C 19.1 °C 1010.5 hPa SE 8.7 km/h 19.3 km/h 56% 0.0 mm
19:24 28.6 °C 19.1 °C 1010.5 hPa SE 10.3 km/h 19.3 km/h 56.3% 0.0 mm
19:29 28.6 °C 19 °C 1010.5 hPa SE 10.2 km/h 16.1 km/h 56.2% 0.0 mm
19:34 28.5 °C 18.9 °C 1010.7 hPa SE 9.5 km/h 14.5 km/h 56% 0.0 mm
19:39 28.4 °C 18.8 °C 1010.7 hPa ESE 9.3 km/h 11.3 km/h 56% 0.0 mm
19:44 28.3 °C 18.8 °C 1010.7 hPa SE 8.4 km/h 11.9 km/h 56.4% 0.0 mm
19:49 28.2 °C 18.9 °C 1010.8 hPa ESE 8.1 km/h 11.3 km/h 57% 0.0 mm
19:54 28.2 °C 18.9 °C 1010.8 hPa ESE 6.9 km/h 11.3 km/h 57.2% 0.0 mm
19:59 28.1 °C 19 °C 1010.8 hPa SE 6.9 km/h 13 km/h 58.1% 0.0 mm
20:04 27.9 °C 19.1 °C 1010.8 hPa SE 6.9 km/h 12.9 km/h 58.9% 0.0 mm
20:09 27.8 °C 19.1 °C 1010.8 hPa SSE 7.2 km/h 11.9 km/h 59% 0.0 mm
20:14 27.8 °C 19.1 °C 1010.8 hPa SSE 8.4 km/h 11.3 km/h 59% 0.0 mm
20:19 27.8 °C 19.2 °C 1011.2 hPa SSE 7.6 km/h 9.7 km/h 59.6% 0.0 mm
20:24 27.8 °C 19.1 °C 1011.2 hPa SSO 4.7 km/h 7.4 km/h 59% 0.0 mm
20:29 27.8 °C 19 °C 1011.2 hPa SSO 4.3 km/h 8 km/h 59% 0.0 mm
20:34 27.8 °C 19.1 °C 1011.4 hPa OSO 2.9 km/h 6.4 km/h 59.2% 0.0 mm
20:39 27.8 °C 19.3 °C 1011.4 hPa ONO 3 km/h 8.4 km/h 60% 0.0 mm
20:44 27.7 °C 19.3 °C 1011.4 hPa NO 3.2 km/h 8.7 km/h 60.3% 0.0 mm
20:49 27.4 °C 19.4 °C 1011.9 hPa NNO 3.7 km/h 11.1 km/h 61.6% 0.0 mm
20:54 27.2 °C 19 °C 1011.9 hPa NO 5.8 km/h 20.4 km/h 61.1% 0.0 mm
20:59 27.1 °C 18.2 °C 1011.9 hPa Oeste 6.5 km/h 20.9 km/h 58.4% 0.0 mm
21:04 27.2 °C 18 °C 1012.1 hPa OSO 8.7 km/h 12.9 km/h 57.3% 0.0 mm
21:09 27.3 °C 18 °C 1012.1 hPa OSO 8.5 km/h 18.3 km/h 57% 0.0 mm
21:14 27.3 °C 17.9 °C 1012.1 hPa OSO 7.6 km/h 19.3 km/h 56.3% 0.0 mm
21:19 27.3 °C 17.8 °C 1012.5 hPa SO 7.8 km/h 19.3 km/h 56% 0.0 mm
21:24 27.3 °C 17.5 °C 1012.5 hPa SSO 8.7 km/h 14 km/h 55.2% 0.0 mm
21:29 27.4 °C 17.4 °C 1012.5 hPa SSO 8.7 km/h 16.7 km/h 54.4% 0.0 mm
21:34 27.4 °C 17.3 °C 1012.7 hPa SSO 8.7 km/h 16.1 km/h 54% 0.0 mm
21:39 27.4 °C 17.3 °C 1012.7 hPa Sur 8.5 km/h 13 km/h 53.8% 0.0 mm
21:44 27.4 °C 17.5 °C 1012.7 hPa Sur 7.6 km/h 13 km/h 54.9% 0.0 mm
21:49 27.2 °C 17.7 °C 1012.9 hPa SSO 8 km/h 16.7 km/h 56% 0.0 mm
21:54 26.9 °C 18 °C 1012.9 hPa SSO 9.5 km/h 16.7 km/h 58.3% 0.0 mm
21:59 26.7 °C 18 °C 1012.9 hPa SO 9.2 km/h 14.5 km/h 59.3% 0.0 mm
22:04 26.6 °C 18.2 °C 1013.0 hPa Oeste 8.4 km/h 14.5 km/h 59.9% 0.0 mm
22:09 26.5 °C 18.3 °C 1013.0 hPa Oeste 8 km/h 12.9 km/h 60.7% 0.0 mm
22:14 26.4 °C 18.7 °C 1013.0 hPa OSO 6.5 km/h 9.7 km/h 62.6% 0.0 mm
22:19 26.3 °C 18.9 °C 1013.2 hPa SO 6.1 km/h 9.7 km/h 64% 0.0 mm
22:24 26.3 °C 19.1 °C 1013.2 hPa OSO 4.7 km/h 9.3 km/h 64.9% 0.0 mm
22:29 26.3 °C 19.5 °C 1013.2 hPa Oeste 4.9 km/h 9.7 km/h 66.2% 0.0 mm
22:34 26.2 °C 19.7 °C 1013.5 hPa Oeste 5.8 km/h 9.7 km/h 67.5% 0.0 mm
22:39 26.1 °C 20 °C 1013.5 hPa OSO 5.8 km/h 9.7 km/h 69% 0.0 mm
22:44 26 °C 20.1 °C 1013.5 hPa OSO 5.8 km/h 9.7 km/h 70% 0.0 mm
22:49 25.9 °C 20.2 °C 1013.5 hPa OSO 5.6 km/h 9.3 km/h 71% 0.0 mm
22:54 25.8 °C 20.2 °C 1013.5 hPa SO 5 km/h 9.7 km/h 71% 0.0 mm
22:59 25.8 °C 20.2 °C 1013.5 hPa SO 5 km/h 8 km/h 71% 0.0 mm
23:04 25.9 °C 20.2 °C 1013.6 hPa OSO 5 km/h 8 km/h 71% 0.0 mm
23:09 25.9 °C 20.1 °C 1013.6 hPa OSO 4 km/h 4.7 km/h 70.3% 0.0 mm
23:14 25.9 °C 20 °C 1013.6 hPa Calm   4.8 km/h 70% 0.0 mm
23:19 25.8 °C 19.2 °C 1013.7 hPa NO 0.6 km/h 14 km/h 66.7% 0.0 mm
23:24 25.9 °C 17.3 °C 1013.7 hPa NO 3.2 km/h 14.8 km/h 59.3% 0.0 mm
23:29 26 °C 16.3 °C 1013.7 hPa NNO 4 km/h 14.5 km/h 55.2% 0.0 mm
23:34 26.1 °C 15.8 °C 1013.8 hPa NO 6.9 km/h 11.3 km/h 53.1% 0.0 mm
23:39 26.1 °C 15.7 °C 1013.8 hPa NO 6.3 km/h 8 km/h 52.6% 0.0 mm
23:44 26.2 °C 15.5 °C 1013.8 hPa ONO 3.9 km/h 9.5 km/h 51.7% 0.0 mm
23:49 26.2 °C 15.4 °C 1014.0 hPa NO 3.9 km/h 9.7 km/h 51.5% 0.0 mm
23:54 26.1 °C 15.1 °C 1014.0 hPa ONO 3.9 km/h 13 km/h 50.9% 0.0 mm
23:59 26.1 °C 14.9 °C 1014.0 hPa NNO 4.3 km/h 14.8 km/h 50% 0.0 mm
Murcia-Puente Tocinos, España
Compliments of Weather Underground - 3 mb

La estación de MeteoMurcia.com, publica sus datos en los siguientes proyectos:

Weather Underground PWS IMURCIAP2 Meteoclimatic www.awekas.at

W3Counter
Web Analytics